Time,TemperatureF,DewpointF,PressureIn,WindDirection,WindDirectionDegrees,WindSpeedMPH,WindSpeedGustMPH,Humidity,HourlyPrecipIn,Conditions,Clouds,dailyrainin,SoftwareType,DateUTC
2013-01-14 00:32:00,33.0,25.3,30.25,West,264,0.0,0.0,73,0.00,,,0.00,Wunderground v.1.15,2013-01-14 08:32:00,
2013-01-14 00:42:00,33.1,25.7,30.25,SSW,195,0.0,0.0,74,0.00,,,0.00,Wunderground v.1.15,2013-01-14 08:42:00,
2013-01-14 00:52:00,32.8,27.0,30.25,SW,214,0.0,0.0,79,0.00,,,0.00,Wunderground v.1.15,2013-01-14 08:52:00,
2013-01-14 01:03:00,32.3,26.5,30.26,SW,214,0.0,0.0,79,0.00,,,0.00,Wunderground v.1.15,2013-01-14 09:03:00,
2013-01-14 01:12:00,31.7,26.2,30.26,SSW,208,0.0,0.0,80,0.00,,,0.00,Wunderground v.1.15,2013-01-14 09:12:00,
2013-01-14 01:22:00,31.7,25.9,30.27,SW,231,0.0,1.0,79,0.00,,,0.00,Wunderground v.1.15,2013-01-14 09:22:00,
2013-01-14 01:32:00,31.9,24.2,30.27,SSW,203,0.0,0.0,73,0.00,,,0.00,Wunderground v.1.15,2013-01-14 09:32:00,
2013-01-14 01:42:00,32.0,25.9,30.26,SSW,203,0.0,1.0,78,0.00,,,0.00,Wunderground v.1.15,2013-01-14 09:42:00,
2013-01-14 01:52:00,31.7,25.6,30.27,SSW,203,0.0,0.0,78,0.00,,,0.00,Wunderground v.1.15,2013-01-14 09:52:00,
2013-01-14 02:02:00,31.5,24.5,30.27,WSW,247,0.0,0.0,75,0.00,,,0.00,Wunderground v.1.15,2013-01-14 10:02:00,
2013-01-14 02:12:00,31.7,24.4,30.28,SW,223,0.0,0.0,74,0.00,,,0.00,Wunderground v.1.15,2013-01-14 10:12:00,
2013-01-14 02:22:00,31.9,25.2,30.28,WSW,241,0.0,0.0,76,0.00,,,0.00,Wunderground v.1.15,2013-01-14 10:22:00,
2013-01-14 02:32:00,31.8,25.1,30.28,West,276,0.0,0.0,76,0.00,,,0.00,Wunderground v.1.15,2013-01-14 10:32:00,
2013-01-14 02:42:00,31.6,25.2,30.28,West,268,0.0,1.0,77,0.00,,,0.00,Wunderground v.1.15,2013-01-14 10:42:00,
2013-01-14 02:52:00,31.4,25.0,30.28,West,272,0.0,0.0,77,0.00,,,0.00,Wunderground v.1.15,2013-01-14 10:52:00,
2013-01-14 03:12:00,30.8,24.7,30.29,West,261,0.0,2.0,78,0.00,,,0.00,Wunderground v.1.15,2013-01-14 11:12:00,
2013-01-14 03:22:00,30.6,24.2,30.30,West,278,0.0,0.0,77,0.00,,,0.00,Wunderground v.1.15,2013-01-14 11:22:00,
2013-01-14 03:32:00,30.6,24.6,30.30,West,280,1.0,1.0,78,0.00,,,0.00,Wunderground v.1.15,2013-01-14 11:32:00,
2013-01-14 03:42:00,30.6,24.9,30.30,WSW,241,0.0,0.0,79,0.00,,,0.00,Wunderground v.1.15,2013-01-14 11:42:00,
2013-01-14 03:52:00,30.4,24.7,30.30,SW,235,0.0,0.0,79,0.00,,,0.00,Wunderground v.1.15,2013-01-14 11:52:00,
2013-01-14 04:02:00,30.3,24.6,30.29,West,272,0.0,0.0,79,0.00,,,0.00,Wunderground v.1.15,2013-01-14 12:02:00,
2013-01-14 04:12:00,30.1,24.4,30.29,WSW,248,0.0,0.0,79,0.00,,,0.00,Wunderground v.1.15,2013-01-14 12:12:00,
2013-01-14 04:22:00,30.0,24.3,30.28,WSW,248,0.0,0.0,79,0.00,,,0.00,Wunderground v.1.15,2013-01-14 12:22:00,
2013-01-14 04:32:00,29.9,24.5,30.29,WNW,300,1.0,1.0,80,0.00,,,0.00,Wunderground v.1.15,2013-01-14 12:32:00,
2013-01-14 04:42:00,30.0,24.3,30.30,West,266,0.0,0.0,79,0.00,,,0.00,Wunderground v.1.15,2013-01-14 12:42:00,
2013-01-14 04:52:00,30.0,24.0,30.30,WNW,300,1.0,1.0,78,0.00,,,0.00,Wunderground v.1.15,2013-01-14 12:52:00,
2013-01-14 05:02:00,30.0,24.3,30.30,WSW,258,0.0,1.0,79,0.00,,,0.00,Wunderground v.1.15,2013-01-14 13:02:00,
2013-01-14 05:13:00,29.7,24.3,30.30,West,262,0.0,0.0,80,0.00,,,0.00,Wunderground v.1.15,2013-01-14 13:13:00,
2013-01-14 05:22:00,29.6,24.2,30.31,West,260,0.0,0.0,80,0.00,,,0.00,Wunderground v.1.15,2013-01-14 13:22:00,
2013-01-14 05:32:00,29.5,24.1,30.31,WSW,239,0.0,0.0,80,0.00,,,0.00,Wunderground v.1.15,2013-01-14 13:32:00,
2013-01-14 05:42:00,29.4,24.0,30.31,WSW,253,0.0,0.0,80,0.00,,,0.00,Wunderground v.1.15,2013-01-14 13:42:00,
2013-01-14 05:52:00,29.2,24.1,30.32,West,261,0.0,1.0,81,0.00,,,0.00,Wunderground v.1.15,2013-01-14 13:52:00,
2013-01-14 06:12:00,29.2,24.1,30.33,West,279,0.0,0.0,81,0.00,,,0.00,Wunderground v.1.15,2013-01-14 14:12:00,
2013-01-14 06:22:00,29.3,24.5,30.34,WSW,257,0.0,0.0,82,0.00,,,0.00,Wunderground v.1.15,2013-01-14 14:22:00,
2013-01-14 09:52:00,47.3,27.5,30.41,ESE,122,1.0,1.0,46,0.00,,,0.00,Wunderground v.1.15,2013-01-14 17:52:00,
2013-01-14 10:02:00,46.4,24.5,30.41,NE,54,1.0,2.0,42,0.00,,,0.00,Wunderground v.1.15,2013-01-14 18:02:00,
2013-01-14 10:12:00,45.2,23.4,30.41,NE,37,2.0,2.0,42,0.00,,,0.00,Wunderground v.1.15,2013-01-14 18:12:00,
2013-01-14 10:22:00,45.6,24.4,30.41,NE,35,1.0,2.0,43,0.00,,,0.00,Wunderground v.1.15,2013-01-14 18:22:00,
2013-01-14 10:32:00,46.3,23.3,30.41,NNE,19,1.0,2.0,40,0.00,,,0.00,Wunderground v.1.15,2013-01-14 18:32:00,
2013-01-14 10:42:00,46.6,19.7,30.41,NNE,27,2.0,3.0,34,0.00,,,0.00,Wunderground v.1.15,2013-01-14 18:42:00,